Time;durP1;ratioP1;P1;durP2;ratioP2;P2;SDS_P1;SDS_P2;PMS_P1;PMS_P2;Temp;Humidity;BMP_temperature;BMP_pressure;BME280_temperature;BME280_humidity;BME280_pressure;Samples;Min_cycle;Max_cycle;Signal;HPM_P1;HPM_P2
2024/03/29 00:01:45;;;;;;;32.35;8.73;;;;;;;11.78;98.64;99730.22;5048437;28;20037;-80
2024/03/29 00:04:10;;;;;;;26.73;7.97;;;;;;;11.70;97.07;99729.78;5051635;28;20563;-80
2024/03/29 00:06:36;;;;;;;30.85;8.77;;;;;;;11.58;100.00;99741.25;5049715;28;20099;-80
2024/03/29 00:09:01;;;;;;;35.50;8.98;;;;;;;11.12;100.00;99740.22;5050529;28;20088;-80
2024/03/29 00:11:27;;;;;;;26.05;7.80;;;;;;;11.12;100.00;99726.06;5050554;28;20037;-79
2024/03/29 00:13:53;;;;;;;40.75;8.25;;;;;;;11.49;100.00;99769.38;5050386;28;20425;-80
2024/03/29 00:16:18;;;;;;;32.47;8.23;;;;;;;11.65;97.76;99768.69;5053816;28;20037;-80
2024/03/29 00:18:43;;;;;;;27.13;8.27;;;;;;;11.35;100.00;99770.66;5052562;28;20114;-80
2024/03/29 00:21:09;;;;;;;28.58;7.75;;;;;;;11.34;97.70;99763.66;5052517;28;20039;-80
2024/03/29 00:23:34;;;;;;;30.75;9.05;;;;;;;11.19;98.22;99759.59;5051385;28;20029;-81
2024/03/29 00:26:00;;;;;;;31.45;8.23;;;;;;;11.37;98.50;99777.38;5051917;28;20044;-79
2024/03/29 00:28:25;;;;;;;24.00;7.93;;;;;;;11.35;97.60;99767.97;5049646;28;20017;-80
2024/03/29 00:30:50;;;;;;;26.15;7.97;;;;;;;11.15;97.86;99761.09;5042862;28;20045;-80
2024/03/29 00:33:16;;;;;;;24.92;7.65;;;;;;;11.21;97.43;99754.84;5052765;28;20036;-80
2024/03/29 00:35:41;;;;;;;18.98;6.82;;;;;;;11.03;98.15;99760.25;5051138;28;20460;-80
2024/03/29 00:38:07;;;;;;;25.40;8.02;;;;;;;10.93;100.00;99760.00;5054908;28;20510;-80
2024/03/29 00:40:32;;;;;;;27.15;7.32;;;;;;;11.10;99.88;99760.19;5044516;28;20068;-79
2024/03/29 00:42:57;;;;;;;23.65;7.22;;;;;;;10.68;100.00;99742.31;5050299;28;20712;-79
2024/03/29 00:45:23;;;;;;;32.22;7.95;;;;;;;10.48;100.00;99736.44;5056650;28;20047;-80
2024/03/29 00:47:48;;;;;;;20.33;7.43;;;;;;;10.08;100.00;99760.94;5068731;28;20017;-81
2024/03/29 00:50:14;;;;;;;24.88;8.23;;;;;;;9.52;100.00;99698.84;5046749;28;20057;-81
2024/03/29 00:52:39;;;;;;;23.67;7.97;;;;;;;10.03;100.00;99741.09;5040563;28;20024;-80
2024/03/29 00:55:05;;;;;;;23.52;7.57;;;;;;;10.32;100.00;99765.38;5050889;28;20123;-80
2024/03/29 00:57:30;;;;;;;26.98;8.23;;;;;;;10.57;100.00;99759.09;5050540;28;20379;-80
2024/03/29 00:59:58;;;;;;;26.85;7.80;;;;;;;10.64;100.00;99767.81;5047619;28;20098;-81
2024/03/29 01:02:24;;;;;;;27.20;7.95;;;;;;;10.73;100.00;99761.13;5045238;28;20025;-80
2024/03/29 01:04:50;;;;;;;23.42;8.15;;;;;;;10.32;100.00;99776.03;5050515;28;20520;-80
2024/03/29 01:07:17;;;;;;;26.80;8.45;;;;;;;10.10;100.00;99748.19;5050334;28;20086;-81
2024/03/29 01:09:43;;;;;;;28.02;7.88;;;;;;;10.36;100.00;99761.22;5047275;28;20025;-80
2024/03/29 01:12:09;;;;;;;37.97;9.45;;;;;;;10.38;100.00;99719.16;5040615;28;20025;-80
2024/03/29 01:14:34;;;;;;;27.15;8.90;;;;;;;10.68;100.00;99776.19;5050049;28;20107;-80
2024/03/29 01:16:59;;;;;;;32.53;9.25;;;;;;;10.62;100.00;99764.56;5049696;28;20124;-79
2024/03/29 01:19:25;;;;;;;26.35;9.13;;;;;;;9.97;100.00;99768.63;5047886;28;20457;-79
2024/03/29 01:21:50;;;;;;;27.70;8.77;;;;;;;10.23;100.00;99772.00;5033508;28;20105;-80
2024/03/29 01:24:16;;;;;;;27.90;8.93;;;;;;;10.53;100.00;99796.06;5050130;28;20036;-80
2024/03/29 01:26:41;;;;;;;28.38;8.77;;;;;;;10.30;100.00;99778.13;5049670;28;20029;-80
2024/03/29 01:29:06;;;;;;;25.58;8.80;;;;;;;10.50;100.00;99779.69;5049097;28;20052;-80
2024/03/29 01:31:32;;;;;;;29.50;9.30;;;;;;;10.45;99.89;99772.38;5040857;28;20036;-80
2024/03/29 01:33:58;;;;;;;35.95;10.27;;;;;;;10.47;100.00;99777.50;5045031;28;20029;-80
2024/03/29 01:36:24;;;;;;;31.73;10.27;;;;;;;10.48;100.00;99784.44;5048817;28;20045;-79
2024/03/29 01:38:54;;;;;;;33.28;9.65;;;;;;;10.65;98.08;99769.44;5051293;28;20048;-80
2024/03/29 01:41:19;;;;;;;24.63;11.48;;;;;;;10.21;99.57;99748.25;5047413;28;20029;-81
2024/03/29 01:43:45;;;;;;;28.48;12.18;;;;;;;10.34;99.16;99779.28;5041940;28;20037;-80
2024/03/29 01:46:10;;;;;;;29.67;9.68;;;;;;;10.45;97.06;99767.06;5048947;28;20032;-81
2024/03/29 01:48:36;;;;;;;29.55;11.50;;;;;;;10.66;96.88;99773.72;5049239;28;20033;-81
2024/03/29 01:51:01;;;;;;;24.10;7.72;;;;;;;10.16;98.44;99761.44;5046458;28;20056;-80
2024/03/29 01:53:28;;;;;;;22.95;8.80;;;;;;;9.83;100.00;99785.78;5055875;28;20055;-80
2024/03/29 01:55:53;;;;;;;30.70;8.32;;;;;;;10.28;100.00;99790.81;5062617;28;20060;-79
2024/03/29 01:58:21;;;;;;;27.20;7.38;;;;;;;9.98;100.00;99802.22;5048640;28;20112;-80
2024/03/29 02:00:59;;;;;;;28.73;8.23;;;;;;;9.25;100.00;99782.41;5036962;28;20487;-81
2024/03/29 02:03:25;;;;;;;24.17;8.15;;;;;;;8.79;100.00;99799.50;5034698;28;20102;-80
2024/03/29 02:05:50;;;;;;;22.40;8.00;;;;;;;8.97;100.00;99787.31;5047947;28;20433;-80
2024/03/29 02:08:16;;;;;;;26.30;8.05;;;;;;;8.87;100.00;99769.19;5047684;28;20397;-80
2024/03/29 02:10:43;;;;;;;24.60;7.95;;;;;;;8.90;100.00;99802.50;5061667;28;20063;-80
2024/03/29 02:13:09;;;;;;;20.73;7.68;;;;;;;9.20;100.00;99813.38;5045974;28;20344;-80
2024/03/29 02:15:34;;;;;;;30.15;9.73;;;;;;;9.34;100.00;99830.06;5047536;28;20533;-80
2024/03/29 02:18:00;;;;;;;24.83;7.18;;;;;;;9.34;100.00;99816.75;5047306;28;20530;-81
2024/03/29 02:20:26;;;;;;;21.42;7.47;;;;;;;9.14;100.00;99804.38;5046490;28;20435;-80
2024/03/29 02:22:55;;;;;;;22.73;8.20;;;;;;;9.29;100.00;99835.19;5044193;28;20123;-80
2024/03/29 02:25:21;;;;;;;21.20;7.63;;;;;;;9.43;100.00;99837.53;5047200;28;20521;-79
2024/03/29 02:27:47;;;;;;;24.58;6.75;;;;;;;9.37;100.00;99821.63;5060368;28;20060;-79
2024/03/29 02:30:16;;;;;;;18.92;6.70;;;;;;;8.94;100.00;99812.50;5053438;28;20127;-80
2024/03/29 02:32:42;;;;;;;24.20;7.00;;;;;;;8.72;100.00;99854.53;5032310;28;20047;-80
2024/03/29 02:35:08;;;;;;;24.70;7.43;;;;;;;8.65;100.00;99835.16;5045438;28;20032;-80
2024/03/29 02:37:36;;;;;;;25.63;7.82;;;;;;;8.80;100.00;99826.91;5045831;28;20029;-79
2024/03/29 02:40:03;;;;;;;21.50;6.53;;;;;;;8.87;100.00;99837.50;5040573;28;20029;-79
2024/03/29 02:42:29;;;;;;;33.42;8.68;;;;;;;8.18;100.00;99866.38;5037602;28;20061;-79
2024/03/29 02:44:55;;;;;;;17.00;6.07;;;;;;;7.79;100.00;99833.53;5046202;28;20061;-80
2024/03/29 02:47:21;;;;;;;21.85;7.20;;;;;;;7.99;100.00;99847.59;5046709;28;20494;-80
2024/03/29 02:49:46;;;;;;;17.35;5.38;;;;;;;7.67;100.00;99854.59;5047273;28;20040;-80
2024/03/29 02:52:12;;;;;;;18.63;6.78;;;;;;;8.00;100.00;99859.03;5039975;28;20108;-81
2024/03/29 02:54:37;;;;;;;14.13;5.32;;;;;;;8.49;100.00;99889.59;5036787;28;20021;-80
2024/03/29 02:57:03;;;;;;;18.50;7.38;;;;;;;8.55;100.00;99875.47;5047195;28;20048;-80
2024/03/29 02:59:28;;;;;;;22.30;7.93;;;;;;;8.76;100.00;99871.69;5046816;28;20068;-80
2024/03/29 03:01:54;;;;;;;20.85;6.65;;;;;;;8.58;100.00;99874.22;5039007;28;20488;-80
2024/03/29 03:04:19;;;;;;;19.33;7.03;;;;;;;8.42;100.00;99868.38;5047550;28;20164;-80
2024/03/29 03:06:44;;;;;;;20.67;7.72;;;;;;;9.10;100.00;99906.94;5051936;28;20041;-80
2024/03/29 03:11:53;;;;;;;23.48;8.35;;;;;;;9.05;100.00;99881.00;5044584;28;20091;-80
2024/03/29 03:14:19;;;;;;;25.10;6.78;;;;;;;9.09;100.00;99907.16;5038878;28;20025;-80
2024/03/29 03:16:44;;;;;;;22.90;7.45;;;;;;;8.95;100.00;99893.94;5051085;28;20108;-80
2024/03/29 03:19:10;;;;;;;22.52;6.93;;;;;;;8.97;100.00;99888.38;5048261;28;20045;-79
2024/03/29 03:21:35;;;;;;;21.95;7.22;;;;;;;8.91;100.00;99907.84;5048434;28;20108;-79
2024/03/29 03:24:01;;;;;;;22.17;6.50;;;;;;;8.85;100.00;99906.88;5047146;28;20033;-79
2024/03/29 03:26:26;;;;;;;26.65;7.00;;;;;;;8.77;100.00;99902.59;5050873;28;20464;-80
2024/03/29 03:28:51;;;;;;;22.33;7.07;;;;;;;8.58;100.00;99892.84;5050383;28;20033;-80
2024/03/29 03:31:17;;;;;;;23.85;6.63;;;;;;;8.68;100.00;99901.19;5059569;28;20029;-80
2024/03/29 03:33:43;;;;;;;17.67;7.55;;;;;;;8.56;100.00;99898.38;5036419;28;20029;-79
2024/03/29 03:36:08;;;;;;;24.25;6.18;;;;;;;8.44;100.00;99908.84;5049012;28;20052;-80
2024/03/29 03:38:36;;;;;;;21.90;6.60;;;;;;;8.50;100.00;99923.16;5049037;28;20044;-80
2024/03/29 03:41:02;;;;;;;21.95;6.07;;;;;;;8.40;100.00;99912.91;5047350;28;20070;-80
2024/03/29 03:43:27;;;;;;;23.80;7.28;;;;;;;8.49;100.00;99931.31;5050497;28;20060;-79
2024/03/29 03:45:53;;;;;;;23.77;5.75;;;;;;;8.64;100.00;99947.81;5048881;28;20811;-80
2024/03/29 03:48:18;;;;;;;22.90;5.93;;;;;;;8.41;100.00;99925.19;5050031;28;20056;-80
2024/03/29 03:50:44;;;;;;;19.83;6.43;;;;;;;8.34;100.00;99944.81;5049094;28;20174;-79
2024/03/29 03:53:09;;;;;;;18.77;5.43;;;;;;;7.27;100.00;99918.22;5033132;28;20021;-80
2024/03/29 03:55:38;;;;;;;16.30;5.50;;;;;;;7.92;100.00;99953.00;5042806;28;20506;-79
2024/03/29 03:58:03;;;;;;;23.42;6.88;;;;;;;8.09;100.00;99973.84;5049991;28;20139;-80
2024/03/29 04:00:29;;;;;;;17.83;6.53;;;;;;;6.98;100.00;99956.47;5046561;28;20029;-80
2024/03/29 04:02:56;;;;;;;23.98;7.25;;;;;;;6.55;100.00;99967.28;5036859;28;20033;-80
2024/03/29 04:05:22;;;;;;;19.92;6.43;;;;;;;6.49;100.00;99984.75;5038284;28;20021;-80
2024/03/29 04:07:48;;;;;;;20.83;5.38;;;;;;;6.67;100.00;99976.31;5040905;28;20028;-80
2024/03/29 04:10:13;;;;;;;22.35;6.35;;;;;;;7.34;100.00;99960.69;5049661;28;20080;-80
2024/03/29 04:12:39;;;;;;;24.92;7.53;;;;;;;7.74;100.00;99980.16;5039862;28;20061;-79
2024/03/29 04:15:05;;;;;;;26.55;7.50;;;;;;;7.84;100.00;99993.03;5033683;28;20021;-79
2024/03/29 04:17:31;;;;;;;23.48;5.88;;;;;;;7.98;100.00;99967.31;5049341;28;20048;-80
2024/03/29 04:19:57;;;;;;;21.65;6.53;;;;;;;7.44;100.00;100009.69;5049112;28;20028;-80
2024/03/29 04:22:23;;;;;;;20.95;7.95;;;;;;;7.44;100.00;99982.34;5049448;28;20418;-79
2024/03/29 04:24:49;;;;;;;18.33;7.07;;;;;;;7.80;100.00;99976.69;5048332;28;20457;-79
2024/03/29 04:27:14;;;;;;;18.02;5.90;;;;;;;7.94;100.00;100004.06;5049327;28;20456;-81
2024/03/29 04:29:40;;;;;;;18.08;6.07;;;;;;;7.49;100.00;99979.91;5048623;28;20127;-80
2024/03/29 04:32:05;;;;;;;21.65;7.07;;;;;;;7.69;100.00;99973.81;5049683;28;20054;-79
2024/03/29 04:34:31;;;;;;;22.92;6.40;;;;;;;7.92;100.00;99995.47;5041793;28;20053;-80
2024/03/29 04:36:56;;;;;;;27.40;6.82;;;;;;;7.87;100.00;99997.94;5047039;28;20060;-80
2024/03/29 04:39:22;;;;;;;19.80;6.60;;;;;;;7.43;100.00;99927.63;5049202;28;20498;-81
2024/03/29 04:41:47;;;;;;;19.65;7.05;;;;;;;8.00;100.00;99987.31;5040505;28;20426;-80
2024/03/29 04:44:13;;;;;;;14.20;5.55;;;;;;;7.71;100.00;99991.19;5049730;28;20114;-79
2024/03/29 04:46:39;;;;;;;20.88;6.35;;;;;;;7.89;100.00;99979.16;5048772;28;20059;-80
2024/03/29 04:49:04;;;;;;;20.20;6.32;;;;;;;7.74;100.00;99974.03;5048834;28;20060;-78
2024/03/29 04:51:30;;;;;;;21.48;6.38;;;;;;;7.86;100.00;100014.88;5041061;28;20108;-79
2024/03/29 04:53:55;;;;;;;23.80;7.90;;;;;;;7.68;100.00;99993.41;5049464;28;20043;-80
2024/03/29 04:56:21;;;;;;;16.58;5.75;;;;;;;7.88;100.00;100036.75;5048303;28;20029;-80
2024/03/29 04:58:46;;;;;;;20.08;6.88;;;;;;;7.67;100.00;100002.41;5048537;28;20025;-80
2024/03/29 05:01:12;;;;;;;19.70;5.88;;;;;;;7.94;100.00;100051.88;5044652;28;20402;-80
2024/03/29 05:03:37;;;;;;;16.08;7.68;;;;;;;8.27;100.00;100050.28;5048788;28;20040;-79
2024/03/29 05:06:02;;;;;;;41.38;31.75;;;;;;;8.54;100.00;100051.94;5048713;28;20115;-79
2024/03/29 05:08:28;;;;;;;23.75;14.77;;;;;;;8.84;100.00;100046.97;5048390;28;20044;-80
2024/03/29 05:10:53;;;;;;;15.25;5.63;;;;;;;8.91;99.69;100057.63;5041458;28;20041;-80
2024/03/29 05:13:19;;;;;;;13.07;4.78;;;;;;;8.96;96.75;100046.34;5044165;28;20060;-80
2024/03/29 05:15:45;;;;;;;12.85;4.32;;;;;;;9.20;95.31;100048.31;5047095;28;20021;-80
2024/03/29 05:18:11;;;;;;;10.77;4.35;;;;;;;9.76;93.13;100065.47;5048357;28;20059;-79
2024/03/29 05:20:37;;;;;;;17.95;5.95;;;;;;;9.81;92.79;100056.84;5046638;28;20029;-79
2024/03/29 05:23:02;;;;;;;10.90;4.05;;;;;;;9.80;90.78;100052.53;5048204;28;20494;-80
2024/03/29 05:25:28;;;;;;;15.07;4.47;;;;;;;10.00;90.04;100066.56;5047331;28;20048;-80
2024/03/29 05:27:53;;;;;;;10.93;4.00;;;;;;;10.10;87.87;100060.75;5050236;28;20112;-79
2024/03/29 05:30:19;;;;;;;13.27;4.35;;;;;;;10.16;89.64;100053.75;5045477;28;20506;-79
2024/03/29 05:32:44;;;;;;;12.57;4.85;;;;;;;10.70;91.85;100086.97;5036610;28;20040;-79
2024/03/29 05:35:10;;;;;;;10.15;4.03;;;;;;;10.82;88.07;100085.19;5047717;28;20037;-80
2024/03/29 05:37:36;;;;;;;11.30;4.63;;;;;;;10.78;89.85;100102.69;5047902;28;20108;-80
2024/03/29 05:40:04;;;;;;;10.50;3.90;;;;;;;10.64;90.81;100059.34;5046688;28;20375;-80
2024/03/29 05:42:31;;;;;;;7.18;3.30;;;;;;;11.10;87.33;100077.78;5046673;28;20017;-81
2024/03/29 05:44:57;;;;;;;7.05;2.70;;;;;;;11.49;85.08;100087.16;5048184;28;20041;-81
2024/03/29 05:47:22;;;;;;;11.02;4.53;;;;;;;11.74;82.35;100064.88;5048106;28;20044;-80
2024/03/29 05:49:48;;;;;;;6.03;2.72;;;;;;;12.25;81.07;100119.69;5047995;28;20037;-80
2024/03/29 05:52:14;;;;;;;9.23;3.05;;;;;;;12.05;78.37;100078.03;5034159;28;20032;-79
2024/03/29 05:54:43;;;;;;;6.43;2.30;;;;;;;12.57;77.48;100130.91;5048080;28;20029;-80
2024/03/29 05:57:09;;;;;;;8.70;2.90;;;;;;;12.73;75.42;100117.88;5047600;28;20051;-80
2024/03/29 05:59:35;;;;;;;8.45;2.63;;;;;;;12.98;74.73;100125.72;5047601;28;20398;-80
2024/03/29 06:02:01;;;;;;;7.47;3.00;;;;;;;13.35;74.12;100144.22;5047186;28;20040;-79
2024/03/29 06:04:33;;;;;;;8.93;2.75;;;;;;;13.63;70.92;100130.88;5046004;28;20037;-81
2024/03/29 06:07:05;;;;;;;6.88;2.13;;;;;;;13.69;71.40;100105.00;5044236;28;20028;-80
2024/03/29 06:09:33;;;;;;;5.85;2.17;;;;;;;14.09;70.30;100140.88;5048721;28;20021;-80
2024/03/29 06:11:58;;;;;;;7.57;2.00;;;;;;;14.39;70.77;100165.56;5044885;28;20025;-81
2024/03/29 06:17:23;;;;;;;10.05;2.30;;;;;;;14.62;68.78;100166.50;5048120;28;20550;-80
2024/03/29 06:19:56;;;;;;;4.85;2.00;;;;;;;14.87;69.60;100160.72;5047140;28;20454;-78
2024/03/29 06:22:24;;;;;;;9.00;2.35;;;;;;;14.91;67.97;100171.78;5027556;28;20028;-79
2024/03/29 06:24:53;;;;;;;5.05;1.80;;;;;;;14.92;67.05;100130.47;5042053;28;20025;-79
2024/03/29 06:27:22;;;;;;;7.25;1.83;;;;;;;15.11;65.43;100172.09;5034159;28;20035;-80
2024/03/29 06:29:48;;;;;;;9.30;3.40;;;;;;;15.09;62.53;100160.78;5047475;28;20045;-80
2024/03/29 06:32:13;;;;;;;5.85;2.38;;;;;;;15.20;66.38;100153.69;5041041;28;20075;-79
2024/03/29 06:34:39;;;;;;;7.55;2.47;;;;;;;15.46;64.31;100173.66;5043425;28;20056;-79
2024/03/29 06:37:05;;;;;;;6.90;2.05;;;;;;;15.64;62.22;100176.06;5048825;28;20040;-79
2024/03/29 06:39:30;;;;;;;5.28;1.88;;;;;;;15.61;62.27;100160.44;5053655;28;20478;-78
2024/03/29 06:41:55;;;;;;;8.35;2.10;;;;;;;15.91;60.34;100172.63;5050339;28;20029;-79
2024/03/29 06:44:21;;;;;;;5.25;1.75;;;;;;;16.22;59.09;100186.41;5050844;28;20407;-79
2024/03/29 06:46:47;;;;;;;8.18;1.98;;;;;;;16.26;59.18;100180.31;5050855;28;20061;-79
2024/03/29 06:49:12;;;;;;;9.02;2.00;;;;;;;16.54;59.54;100189.16;5052548;28;20033;-80
2024/03/29 06:51:40;;;;;;;6.50;2.10;;;;;;;16.53;58.64;100192.94;5054313;28;20039;-80
2024/03/29 06:54:06;;;;;;;7.35;1.80;;;;;;;16.67;55.59;100198.69;5053080;28;20033;-79
2024/03/29 06:56:31;;;;;;;6.47;2.10;;;;;;;16.95;55.54;100204.91;5053292;28;20027;-79
2024/03/29 06:58:57;;;;;;;7.07;1.98;;;;;;;17.19;54.74;100200.75;5049297;28;20481;-80
2024/03/29 07:01:22;;;;;;;5.00;2.10;;;;;;;17.25;53.05;100194.34;5053075;28;20063;-79
2024/03/29 07:03:48;;;;;;;5.68;1.83;;;;;;;17.33;53.49;100209.22;5055043;28;20052;-79
2024/03/29 07:06:13;;;;;;;5.78;1.60;;;;;;;17.29;52.18;100200.03;5052970;28;20021;-79
2024/03/29 07:08:39;;;;;;;7.70;1.90;;;;;;;17.36;54.20;100210.56;5053014;28;20044;-79
2024/03/29 07:11:04;;;;;;;8.70;1.95;;;;;;;17.55;54.02;100211.78;5052915;28;20460;-80
2024/03/29 07:13:33;;;;;;;6.57;2.25;;;;;;;17.63;53.02;100216.66;5051152;28;20017;-79
2024/03/29 07:15:59;;;;;;;8.77;2.40;;;;;;;17.67;53.72;100217.78;5052894;28;20028;-79
2024/03/29 07:18:25;;;;;;;9.02;3.65;;;;;;;17.74;53.64;100201.34;5050345;28;20116;-80
2024/03/29 07:20:50;;;;;;;9.15;2.83;;;;;;;17.76;55.87;100198.38;5041243;28;20482;-79
2024/03/29 07:23:16;;;;;;;6.53;2.20;;;;;;;18.10;54.50;100222.28;5054075;28;20430;-79
2024/03/29 07:25:44;;;;;;;11.75;2.40;;;;;;;18.20;53.30;100238.50;5051643;28;20040;-79
2024/03/29 07:28:10;;;;;;;6.97;1.70;;;;;;;17.87;51.95;100192.78;5048630;28;20029;-78
2024/03/29 07:30:38;;;;;;;6.57;2.00;;;;;;;18.28;51.81;100216.38;5053986;28;20056;-80
2024/03/29 07:33:03;;;;;;;4.22;1.63;;;;;;;18.53;52.83;100218.34;5052727;28;20112;-79
2024/03/29 07:35:30;;;;;;;5.65;1.95;;;;;;;18.81;52.44;100214.31;5052852;28;20190;-80
2024/03/29 07:37:56;;;;;;;6.75;1.80;;;;;;;19.22;49.94;100241.34;5051891;28;21229;-79
2024/03/29 07:40:22;;;;;;;6.85;1.70;;;;;;;19.13;50.67;100225.97;5052372;28;20025;-80
2024/03/29 07:42:47;;;;;;;9.00;1.80;;;;;;;19.27;52.39;100241.34;5052519;28;20025;-79
2024/03/29 07:45:13;;;;;;;7.63;2.38;;;;;;;19.25;50.73;100232.69;5052527;28;20036;-79
2024/03/29 07:47:39;;;;;;;8.05;2.42;;;;;;;19.38;48.83;100234.00;5051604;28;20059;-80
2024/03/29 07:50:06;;;;;;;7.07;2.22;;;;;;;19.46;49.47;100232.66;5048882;28;20037;-80
2024/03/29 07:52:32;;;;;;;5.10;1.50;;;;;;;19.92;47.65;100237.13;5050115;28;20445;-79
2024/03/29 07:54:57;;;;;;;6.75;1.80;;;;;;;20.11;45.83;100245.47;5050013;28;21220;-78
2024/03/29 07:57:23;;;;;;;4.18;1.50;;;;;;;20.20;45.82;100235.66;5050264;28;20029;-80
2024/03/29 07:59:50;;;;;;;4.40;1.50;;;;;;;20.16;47.35;100231.88;5049641;28;20021;-79
2024/03/29 08:02:16;;;;;;;8.40;2.85;;;;;;;20.32;49.07;100230.72;5049938;28;20032;-79
2024/03/29 08:04:42;;;;;;;7.28;1.85;;;;;;;20.58;45.34;100244.13;5048049;28;20031;-79
2024/03/29 08:07:08;;;;;;;4.20;1.52;;;;;;;20.75;44.54;100252.69;5045243;28;20488;-79
2024/03/29 08:09:34;;;;;;;9.55;3.38;;;;;;;20.92;45.63;100241.44;5047745;28;20021;-80
2024/03/29 08:11:59;;;;;;;6.15;1.63;;;;;;;20.86;47.08;100234.44;5053585;28;20033;-79
2024/03/29 08:14:27;;;;;;;6.28;1.75;;;;;;;21.03;44.95;100229.44;5049985;28;20056;-80
2024/03/29 08:16:53;;;;;;;;;;;;;;;21.40;44.69;100254.31;5049814;28;20482;-79
2024/03/29 08:19:18;;;;;;;6.15;2.25;;;;;;;21.72;43.72;100252.91;5049467;28;19923;-80
2024/03/29 08:21:43;;;;;;;6.00;1.30;;;;;;;21.83;43.50;100235.44;5049872;28;20461;-80
2024/03/29 08:24:09;;;;;;;4.72;1.33;;;;;;;21.93;41.40;100229.88;5049473;28;20037;-79
2024/03/29 08:26:34;;;;;;;6.88;1.48;;;;;;;21.96;40.61;100251.00;5049709;28;20112;-80
2024/03/29 08:28:59;;;;;;;4.80;1.13;;;;;;;22.20;40.93;100239.31;5049051;28;20056;-80
2024/03/29 08:31:25;;;;;;;5.50;1.00;;;;;;;22.00;37.90;100227.59;5048866;28;20025;-80
2024/03/29 08:33:52;;;;;;;7.32;2.72;;;;;;;22.19;38.25;100229.53;5048489;28;20186;-80
2024/03/29 08:36:17;;;;;;;9.95;3.00;;;;;;;22.16;36.34;100252.66;5048993;28;20025;-79
2024/03/29 08:38:45;;;;;;;10.25;2.20;;;;;;;22.46;37.72;100232.44;5049664;28;20025;-80
2024/03/29 08:41:10;;;;;;;5.32;1.75;;;;;;;22.63;36.77;100228.38;5050174;28;20126;-80
2024/03/29 08:43:36;;;;;;;4.78;1.40;;;;;;;22.58;37.69;100245.59;5049527;28;20133;-79
2024/03/29 08:46:01;;;;;;;8.65;2.25;;;;;;;22.39;37.49;100232.03;5049157;28;20040;-80
2024/03/29 08:48:27;;;;;;;9.40;3.10;;;;;;;22.80;36.37;100242.28;5049589;28;20060;-80
2024/03/29 08:50:52;;;;;;;9.07;3.20;;;;;;;22.78;36.72;100249.91;5049265;28;20048;-80
2024/03/29 08:53:18;;;;;;;6.18;2.45;;;;;;;22.98;35.99;100247.97;5048576;28;20047;-80
2024/03/29 08:55:48;;;;;;;10.48;2.55;;;;;;;23.27;36.02;100247.75;5048973;28;20020;-80
2024/03/29 08:58:13;;;;;;;12.43;4.55;;;;;;;23.39;34.44;100252.72;5048759;28;20025;-79
2024/03/29 09:00:39;;;;;;;8.90;2.92;;;;;;;23.06;35.86;100242.66;5048289;28;20029;-80
2024/03/29 09:03:04;;;;;;;9.60;3.05;;;;;;;23.29;34.94;100250.19;5048305;28;20116;-79
2024/03/29 09:05:30;;;;;;;20.73;9.35;;;;;;;23.19;36.55;100249.28;5048595;28;20017;-80
2024/03/29 09:07:56;;;;;;;41.30;21.50;;;;;;;23.36;33.22;100234.28;5048835;28;20029;-79
2024/03/29 09:10:26;;;;;;;62.83;30.70;;;;;;;23.63;32.09;100255.28;5048076;28;20441;-80
2024/03/29 09:12:52;;;;;;;29.10;12.63;;;;;;;23.77;33.69;100236.25;5046659;28;20045;-81
2024/03/29 09:15:18;;;;;;;33.67;16.20;;;;;;;24.06;33.84;100242.16;5038798;28;20032;-80
2024/03/29 09:17:44;;;;;;;28.95;12.85;;;;;;;23.79;33.37;100228.59;5042207;28;20041;-79
2024/03/29 09:20:10;;;;;;;21.50;8.45;;;;;;;24.25;34.93;100222.16;5037566;28;20036;-79
2024/03/29 09:22:37;;;;;;;24.70;11.48;;;;;;;24.41;31.49;100245.22;5040037;28;20037;-79
2024/03/29 09:25:04;;;;;;;20.05;8.77;;;;;;;24.52;36.74;100213.13;5036468;28;20044;-79
2024/03/29 09:27:30;;;;;;;;;;;;;;;24.89;31.06;100240.31;5047065;28;20040;-80
2024/03/29 09:29:58;;;;;;;13.85;5.50;;;;;;;24.76;32.54;100212.00;5045575;28;19921;-80
2024/03/29 09:32:23;;;;;;;10.60;4.00;;;;;;;24.83;32.08;100239.66;5032153;28;20100;-79
2024/03/29 09:34:49;;;;;;;11.13;4.32;;;;;;;24.79;30.29;100212.19;5048272;28;20143;-80
2024/03/29 09:37:15;;;;;;;11.20;5.47;;;;;;;25.10;31.57;100213.34;5047814;28;20029;-79
2024/03/29 09:39:40;;;;;;;8.32;3.05;;;;;;;25.11;32.00;100202.13;5047727;28;21177;-79
2024/03/29 09:42:07;;;;;;;12.35;3.58;;;;;;;25.37;34.30;100212.38;5048038;28;20028;-79
2024/03/29 09:44:36;;;;;;;9.68;3.95;;;;;;;25.66;31.14;100215.41;5047886;28;20128;-80
2024/03/29 09:47:03;;;;;;;7.38;2.40;;;;;;;25.90;28.76;100211.44;5047475;28;20108;-80
2024/03/29 09:49:31;;;;;;;10.23;2.85;;;;;;;26.13;32.46;100192.19;5047545;28;20064;-80
2024/03/29 09:52:00;;;;;;;10.50;3.40;;;;;;;26.06;27.73;100196.22;5047895;28;20037;-81
2024/03/29 09:54:29;;;;;;;9.20;3.53;;;;;;;25.76;29.51;100180.69;5046987;28;20075;-79
2024/03/29 09:56:58;;;;;;;14.02;4.78;;;;;;;26.06;29.75;100189.94;5045436;28;20108;-79
2024/03/29 09:59:26;;;;;;;11.35;4.18;;;;;;;26.37;28.82;100197.19;5047613;28;20095;-79
2024/03/29 10:01:53;;;;;;;10.50;4.95;;;;;;;26.71;27.77;100190.94;5047159;28;20120;-79
2024/03/29 10:04:21;;;;;;;11.45;3.50;;;;;;;26.70;29.13;100183.84;5046145;28;20039;-77
2024/03/29 10:06:49;;;;;;;8.95;2.55;;;;;;;26.57;29.08;100184.81;5047534;28;20036;-78
2024/03/29 10:09:18;;;;;;;7.82;1.98;;;;;;;26.76;29.54;100182.53;5046904;28;20112;-79
2024/03/29 10:11:44;;;;;;;5.93;1.77;;;;;;;27.03;27.88;100183.28;5046797;28;20111;-80
2024/03/29 10:14:10;;;;;;;5.38;1.73;;;;;;;26.74;27.61;100168.38;5047209;28;20483;-79
2024/03/29 10:16:35;;;;;;;7.60;2.15;;;;;;;26.69;27.28;100165.84;5047082;28;20078;-79
2024/03/29 10:19:02;;;;;;;4.90;1.50;;;;;;;26.91;28.71;100155.78;5047658;28;20125;-80
2024/03/29 10:21:27;;;;;;;4.85;1.80;;;;;;;27.37;27.90;100185.13;5047071;28;20492;-78
2024/03/29 10:23:53;;;;;;;5.50;1.92;;;;;;;27.54;26.67;100172.47;5047042;28;20036;-78
2024/03/29 10:26:19;;;;;;;4.75;1.42;;;;;;;27.87;29.39;100171.81;5047087;28;20018;-78
2024/03/29 10:28:47;;;;;;;5.38;1.50;;;;;;;27.74;27.39;100176.38;5046420;28;20098;-79
2024/03/29 10:31:14;;;;;;;7.95;2.30;;;;;;;27.67;24.81;100170.66;5047536;28;20513;-80
2024/03/29 10:33:43;;;;;;;7.50;2.53;;;;;;;27.88;26.21;100166.00;5047037;28;20032;-78
2024/03/29 10:36:11;;;;;;;6.38;2.25;;;;;;;28.12;27.64;100159.09;5047096;28;20397;-80
2024/03/29 10:38:38;;;;;;;10.43;3.63;;;;;;;27.93;26.90;100154.88;5047048;28;20033;-79
2024/03/29 10:41:06;;;;;;;8.77;3.20;;;;;;;27.39;26.09;100140.97;5049724;28;20025;-79
2024/03/29 10:43:32;;;;;;;6.53;1.90;;;;;;;27.68;27.68;100150.31;5046072;28;20123;-79
2024/03/29 10:46:00;;;;;;;4.07;1.52;;;;;;;28.11;26.21;100141.00;5047147;28;20040;-80
2024/03/29 10:48:27;;;;;;;7.47;2.65;;;;;;;28.38;25.12;100124.00;5046362;28;20040;-79
2024/03/29 10:50:54;;;;;;;3.00;0.95;;;;;;;28.54;26.49;100123.38;5047520;28;20151;-79
2024/03/29 10:53:22;;;;;;;5.57;1.60;;;;;;;28.82;26.49;100135.34;5046898;28;20033;-79
2024/03/29 10:55:50;;;;;;;6.18;1.55;;;;;;;29.11;25.21;100130.03;5046708;28;20037;-80
2024/03/29 10:58:19;;;;;;;4.80;1.40;;;;;;;28.95;24.94;100129.88;5046954;28;20482;-79
2024/03/29 11:00:49;;;;;;;5.78;1.55;;;;;;;28.89;27.23;100120.25;5047151;28;20029;-79
2024/03/29 11:03:36;;;;;;;4.47;1.33;;;;;;;29.04;23.74;100094.88;5046766;28;20707;-79
2024/03/29 11:06:04;;;;;;;4.28;1.27;;;;;;;28.85;24.52;100093.50;5043782;28;20033;-79
2024/03/29 11:08:34;;;;;;;;;;;;;;;28.87;23.36;100106.06;5058651;28;20043;-79
2024/03/29 11:11:01;;;;;;;5.95;1.50;;;;;;;29.54;23.38;100101.16;5066573;28;19935;-79
2024/03/29 11:13:33;;;;;;;3.70;1.27;;;;;;;29.62;24.64;100112.03;5046764;28;20053;-79
2024/03/29 11:16:00;;;;;;;4.30;1.17;;;;;;;29.65;23.22;100107.81;5047117;28;20029;-79
2024/03/29 11:18:27;;;;;;;2.83;1.27;;;;;;;30.05;22.93;100105.06;5046936;28;20040;-79
2024/03/29 11:20:54;;;;;;;2.78;0.90;;;;;;;30.09;22.76;100113.41;5047054;28;20083;-80
2024/03/29 11:23:21;;;;;;;3.17;0.80;;;;;;;30.34;20.84;100122.41;5046994;28;20029;-79
2024/03/29 11:25:50;;;;;;;3.03;1.05;;;;;;;30.19;21.86;100125.88;5051275;28;20057;-79